Time;durP1;ratioP1;P1;durP2;ratioP2;P2;SDS_P1;SDS_P2;PMS_P1;PMS_P2;Temp;Humidity;BMP_temperature;BMP_pressure;BME280_temperature;BME280_humidity;BME280_pressure;Samples;Min_cycle;Max_cycle;Signal;HPM_P1;HPM_P2
2023/12/11 00:01:13;;;;;;;34.75;7.65;;;;;;;;;;5009583;28;20124;-72
2023/12/11 00:03:40;;;;;;;28.80;5.60;;;;;;;;;;5009126;28;20042;-70
2023/12/11 00:06:07;;;;;;;23.85;5.15;;;;;;;;;;5007632;28;20532;-70
2023/12/11 00:08:34;;;;;;;26.40;6.07;;;;;;;;;;5009031;28;20285;-69
2023/12/11 00:11:00;;;;;;;23.25;4.47;;;;;;;;;;5007571;28;20084;-70
2023/12/11 00:13:26;;;;;;;24.30;5.72;;;;;;;;;;5009001;28;20050;-71
2023/12/11 00:15:53;;;;;;;20.20;5.97;;;;;;;;;;5008011;28;20052;-69
2023/12/11 00:18:20;;;;;;;36.13;4.60;;;;;;;;;;5004905;28;20050;-68
2023/12/11 00:20:46;;;;;;;27.85;5.03;;;;;;;;;;5007553;28;20070;-70
2023/12/11 00:23:13;;;;;;;28.45;4.55;;;;;;;;;;5009363;28;20053;-69
2023/12/11 00:25:44;;;;;;;21.35;4.80;;;;;;;;;;5008543;28;20104;-71
2023/12/11 00:28:10;;;;;;;30.50;4.78;;;;;;;;;;5009029;28;20176;-70
2023/12/11 00:30:37;;;;;;;33.47;5.43;;;;;;;;;;5008350;28;20038;-69
2023/12/11 00:33:03;;;;;;;29.80;5.15;;;;;;;;;;5008785;28;20042;-69
2023/12/11 00:35:30;;;;;;;20.02;4.97;;;;;;;;;;5005772;28;20038;-70
2023/12/11 00:37:56;;;;;;;19.15;4.00;;;;;;;;;;5004960;28;20205;-70
2023/12/11 00:40:23;;;;;;;21.40;4.90;;;;;;;;;;5008125;28;20137;-71
2023/12/11 00:42:49;;;;;;;17.80;4.60;;;;;;;;;;5007424;28;20042;-73
2023/12/11 00:45:16;;;;;;;18.92;4.80;;;;;;;;;;5008028;28;20115;-72
2023/12/11 00:47:42;;;;;;;19.35;6.35;;;;;;;;;;5007773;28;20081;-71
2023/12/11 00:50:09;;;;;;;18.88;3.65;;;;;;;;;;5008303;28;20402;-71
2023/12/11 00:52:35;;;;;;;25.60;4.75;;;;;;;;;;5008034;28;20116;-72
2023/12/11 00:55:02;;;;;;;18.60;3.92;;;;;;;;;;5008923;28;20139;-72
2023/12/11 00:57:29;;;;;;;25.02;4.45;;;;;;;;;;5008782;28;20108;-73
2023/12/11 00:59:56;;;;;;;28.08;4.43;;;;;;;;;;5006589;28;20398;-71
2023/12/11 01:02:22;;;;;;;18.52;5.03;;;;;;;;;;5008218;28;20458;-71
2023/12/11 01:04:49;;;;;;;23.98;4.80;;;;;;;;;;5007529;28;20487;-70
2023/12/11 01:07:15;;;;;;;17.92;5.45;;;;;;;;;;5006842;28;20173;-72
2023/12/11 01:09:42;;;;;;;25.23;4.63;;;;;;;;;;5002598;28;20050;-71
2023/12/11 01:12:08;;;;;;;24.45;4.05;;;;;;;;;;5005725;28;20144;-70
2023/12/11 01:14:37;;;;;;;14.10;3.53;;;;;;;;;;5006954;28;20050;-73
2023/12/11 01:17:04;;;;;;;18.33;4.15;;;;;;;;;;5007920;28;20510;-70
2023/12/11 01:19:50;;;;;;;13.07;3.28;;;;;;;;;;5007206;28;20046;-71
2023/12/11 01:22:17;;;;;;;21.95;3.80;;;;;;;;;;5007831;28;20050;-71
2023/12/11 01:24:43;;;;;;;23.20;4.18;;;;;;;;;;5007334;28;20406;-70
2023/12/11 01:27:10;;;;;;;19.83;3.78;;;;;;;;;;5006507;28;20061;-72
2023/12/11 01:29:36;;;;;;;12.00;5.45;;;;;;;;;;5003836;28;20186;-70
2023/12/11 01:32:03;;;;;;;16.42;4.82;;;;;;;;;;5007239;28;20081;-70
2023/12/11 01:34:30;;;;;;;23.73;4.43;;;;;;;;;;5007644;28;20096;-71
2023/12/11 01:36:56;;;;;;;19.30;4.43;;;;;;;;;;5007019;28;20069;-70
2023/12/11 01:39:23;;;;;;;13.73;3.95;;;;;;;;;;5002819;28;20054;-70
2023/12/11 01:41:49;;;;;;;13.60;4.03;;;;;;;;;;5002346;28;20049;-70
2023/12/11 01:44:16;;;;;;;11.70;3.28;;;;;;;;;;5006314;28;20050;-71
2023/12/11 01:46:42;;;;;;;21.80;5.57;;;;;;;;;;5006879;28;20050;-71
2023/12/11 01:49:09;;;;;;;14.88;4.90;;;;;;;;;;5007908;28;20056;-70
2023/12/11 01:51:35;;;;;;;20.35;3.58;;;;;;;;;;5008422;28;20076;-71
2023/12/11 01:54:02;;;;;;;15.07;5.03;;;;;;;;;;5007036;28;20045;-70
2023/12/11 01:56:29;;;;;;;12.85;3.50;;;;;;;;;;5007410;28;20056;-69
2023/12/11 01:58:56;;;;;;;15.15;3.65;;;;;;;;;;5007095;28;20613;-70
2023/12/11 02:01:25;;;;;;;17.45;5.13;;;;;;;;;;5007270;28;20104;-70
2023/12/11 02:03:52;;;;;;;14.23;3.78;;;;;;;;;;5006947;28;20045;-70
2023/12/11 02:06:18;;;;;;;19.55;4.35;;;;;;;;;;5005938;28;20052;-70
2023/12/11 02:08:45;;;;;;;20.52;4.22;;;;;;;;;;5006158;28;20107;-71
2023/12/11 02:11:12;;;;;;;12.93;2.85;;;;;;;;;;5006786;28;20054;-70
2023/12/11 02:13:39;;;;;;;14.50;4.28;;;;;;;;;;5006303;28;20136;-72
2023/12/11 02:16:06;;;;;;;17.30;4.03;;;;;;;;;;5005800;28;20080;-70
2023/12/11 02:18:32;;;;;;;12.75;3.85;;;;;;;;;;5006807;28;20181;-70
2023/12/11 02:20:59;;;;;;;24.08;5.28;;;;;;;;;;5007054;28;20143;-71
2023/12/11 02:23:33;;;;;;;17.20;3.58;;;;;;;;;;5006579;28;20481;-71
2023/12/11 02:26:13;;;;;;;16.73;4.18;;;;;;;;;;5006627;28;20053;-71
2023/12/11 02:28:39;;;;;;;15.93;3.90;;;;;;;;;;5006329;28;20115;-70
2023/12/11 02:31:06;;;;;;;13.43;2.78;;;;;;;;;;5006740;28;20050;-71
2023/12/11 02:33:33;;;;;;;9.35;3.03;;;;;;;;;;5006272;28;20050;-71
2023/12/11 02:35:59;;;;;;;13.05;4.20;;;;;;;;;;5006220;28;20050;-71
2023/12/11 02:38:26;;;;;;;11.00;2.67;;;;;;;;;;5007575;28;20141;-72
2023/12/11 02:40:53;;;;;;;12.10;3.03;;;;;;;;;;5010323;28;20045;-71
2023/12/11 02:43:19;;;;;;;12.98;3.20;;;;;;;;;;5010390;28;20086;-71
2023/12/11 02:45:46;;;;;;;17.95;4.35;;;;;;;;;;5009650;28;20053;-73
2023/12/11 02:48:12;;;;;;;11.98;2.33;;;;;;;;;;5006255;28;20077;-71
2023/12/11 02:50:39;;;;;;;12.52;2.58;;;;;;;;;;5009254;28;20108;-72
2023/12/11 02:53:05;;;;;;;13.05;2.90;;;;;;;;;;5010727;28;20049;-71
2023/12/11 02:55:32;;;;;;;11.32;2.72;;;;;;;;;;5010364;28;20045;-72
2023/12/11 02:57:59;;;;;;;11.65;2.35;;;;;;;;;;5010470;28;20501;-71
2023/12/11 03:00:26;;;;;;;9.05;2.65;;;;;;;;;;5010080;28;20080;-72
2023/12/11 03:02:53;;;;;;;13.98;3.13;;;;;;;;;;5010430;28;20057;-71
2023/12/11 03:05:19;;;;;;;8.73;2.15;;;;;;;;;;5008284;28;20092;-71
2023/12/11 03:07:46;;;;;;;14.02;4.38;;;;;;;;;;5010326;28;20072;-71
2023/12/11 03:10:12;;;;;;;15.60;2.88;;;;;;;;;;5010073;28;20046;-72
2023/12/11 03:12:39;;;;;;;8.93;3.08;;;;;;;;;;5009363;28;20046;-71
2023/12/11 03:15:06;;;;;;;11.45;2.40;;;;;;;;;;5007765;28;20077;-73
2023/12/11 03:17:32;;;;;;;15.43;2.85;;;;;;;;;;5009811;28;20649;-72
2023/12/11 03:19:59;;;;;;;9.13;2.53;;;;;;;;;;5009834;28;20085;-72
2023/12/11 03:22:26;;;;;;;9.70;2.47;;;;;;;;;;5010148;28;20060;-72
2023/12/11 03:24:53;;;;;;;5.97;2.25;;;;;;;;;;5009458;28;20041;-71
2023/12/11 03:27:22;;;;;;;14.48;3.15;;;;;;;;;;5009685;28;20056;-72
2023/12/11 03:29:49;;;;;;;9.35;2.80;;;;;;;;;;5009478;28;20045;-72
2023/12/11 03:32:15;;;;;;;16.73;3.22;;;;;;;;;;5010033;28;20050;-75
2023/12/11 03:34:42;;;;;;;10.93;2.63;;;;;;;;;;5009693;28;20659;-70
2023/12/11 03:37:09;;;;;;;14.73;2.60;;;;;;;;;;5009513;28;20568;-73
2023/12/11 03:39:36;;;;;;;17.50;3.35;;;;;;;;;;5009636;28;20053;-71
2023/12/11 03:42:03;;;;;;;9.65;2.20;;;;;;;;;;5009845;28;20050;-73
2023/12/11 03:44:29;;;;;;;13.68;2.47;;;;;;;;;;5009494;28;20042;-71
2023/12/11 03:46:57;;;;;;;11.85;2.80;;;;;;;;;;5007862;28;20107;-71
2023/12/11 03:49:24;;;;;;;8.93;2.45;;;;;;;;;;5008582;28;20057;-70
2023/12/11 03:51:51;;;;;;;11.57;3.17;;;;;;;;;;5008841;28;20058;-71
2023/12/11 03:54:17;;;;;;;5.75;2.13;;;;;;;;;;5009548;28;20719;-72
2023/12/11 03:56:44;;;;;;;21.38;4.07;;;;;;;;;;5009156;28;20100;-72
2023/12/11 03:59:11;;;;;;;12.30;2.28;;;;;;;;;;5009201;28;20041;-72
2023/12/11 04:01:38;;;;;;;10.05;3.05;;;;;;;;;;5008996;28;20129;-73
2023/12/11 04:04:04;;;;;;;19.40;3.10;;;;;;;;;;5009359;28;20054;-73
2023/12/11 04:06:31;;;;;;;13.05;3.97;;;;;;;;;;5008781;28;20062;-74
2023/12/11 04:08:57;;;;;;;8.98;2.42;;;;;;;;;;5008925;28;20038;-73
2023/12/11 04:11:24;;;;;;;15.15;3.03;;;;;;;;;;5008792;28;20077;-72
2023/12/11 04:13:50;;;;;;;13.73;2.38;;;;;;;;;;5008939;28;20491;-72
2023/12/11 04:16:17;;;;;;;13.32;2.58;;;;;;;;;;5007526;28;20088;-70
2023/12/11 04:18:43;;;;;;;11.02;3.50;;;;;;;;;;5008777;28;20073;-72
2023/12/11 04:21:10;;;;;;;16.45;2.85;;;;;;;;;;5008626;28;20064;-71
2023/12/11 04:23:36;;;;;;;15.80;3.47;;;;;;;;;;5008852;28;20050;-71
2023/12/11 04:26:03;;;;;;;11.05;3.38;;;;;;;;;;5007305;28;20053;-70
2023/12/11 04:28:29;;;;;;;13.52;3.70;;;;;;;;;;5008944;28;20046;-71
2023/12/11 04:30:56;;;;;;;10.15;3.20;;;;;;;;;;5008756;28;20115;-69
2023/12/11 04:33:22;;;;;;;14.98;3.38;;;;;;;;;;5009148;28;20141;-73
2023/12/11 04:35:49;;;;;;;9.90;3.42;;;;;;;;;;5008019;28;20125;-71
2023/12/11 04:38:15;;;;;;;14.55;4.05;;;;;;;;;;5003880;28;20059;-70
2023/12/11 04:40:42;;;;;;;13.52;2.60;;;;;;;;;;5006876;28;20100;-70
2023/12/11 04:43:08;;;;;;;10.88;2.70;;;;;;;;;;5009103;28;20387;-71
2023/12/11 04:45:35;;;;;;;12.68;2.83;;;;;;;;;;5008509;28;20045;-70
2023/12/11 04:48:01;;;;;;;13.70;3.53;;;;;;;;;;5007021;28;20065;-71
2023/12/11 04:50:28;;;;;;;18.85;3.80;;;;;;;;;;5006266;28;20151;-70
2023/12/11 04:52:55;;;;;;;15.80;2.90;;;;;;;;;;5007899;28;20054;-71
2023/12/11 04:55:21;;;;;;;12.23;3.80;;;;;;;;;;5007813;28;20687;-73
2023/12/11 04:57:48;;;;;;;17.10;3.10;;;;;;;;;;5008191;28;20056;-72
2023/12/11 05:00:15;;;;;;;12.32;3.47;;;;;;;;;;5007761;28;20103;-71
2023/12/11 05:02:42;;;;;;;14.43;3.25;;;;;;;;;;5007952;28;20143;-71
2023/12/11 05:05:10;;;;;;;16.85;3.55;;;;;;;;;;5007225;28;20054;-71
2023/12/11 05:07:36;;;;;;;9.40;3.17;;;;;;;;;;5008851;28;20384;-71
2023/12/11 05:10:03;;;;;;;15.30;3.92;;;;;;;;;;5007601;28;20124;-72
2023/12/11 05:12:29;;;;;;;15.32;3.33;;;;;;;;;;5008336;28;20135;-71
2023/12/11 05:14:56;;;;;;;24.52;4.28;;;;;;;;;;5008065;28;20129;-71
2023/12/11 05:17:22;;;;;;;13.60;3.22;;;;;;;;;;5007001;28;20038;-71
2023/12/11 05:19:49;;;;;;;12.88;2.80;;;;;;;;;;5008341;28;20608;-71
2023/12/11 05:22:15;;;;;;;15.40;2.92;;;;;;;;;;5010939;28;20482;-72
2023/12/11 05:24:42;;;;;;;6.82;2.65;;;;;;;;;;5010732;28;20050;-75
2023/12/11 05:27:10;;;;;;;21.48;4.18;;;;;;;;;;5008097;28;20065;-72
2023/12/11 05:29:37;;;;;;;10.00;3.17;;;;;;;;;;5007778;28;20224;-72
2023/12/11 05:32:04;;;;;;;11.80;3.22;;;;;;;;;;5008307;28;20131;-72
2023/12/11 05:34:30;;;;;;;16.73;3.35;;;;;;;;;;5007230;28;20048;-73
2023/12/11 05:36:57;;;;;;;13.15;3.03;;;;;;;;;;5007488;28;20042;-73
2023/12/11 05:39:23;;;;;;;8.85;2.90;;;;;;;;;;5007768;28;20398;-73
2023/12/11 05:41:50;;;;;;;8.95;3.25;;;;;;;;;;5007266;28;20046;-72
2023/12/11 05:44:16;;;;;;;18.30;3.42;;;;;;;;;;5007554;28;20054;-73
2023/12/11 05:46:43;;;;;;;14.70;3.65;;;;;;;;;;5006908;28;20099;-74
2023/12/11 05:49:10;;;;;;;14.70;4.38;;;;;;;;;;5006409;28;20054;-72
2023/12/11 05:51:36;;;;;;;4.50;2.10;;;;;;;;;;5007402;28;20590;-73
2023/12/11 05:54:03;;;;;;;10.93;2.75;;;;;;;;;;5004237;28;20054;-72
2023/12/11 05:56:30;;;;;;;20.15;3.40;;;;;;;;;;5008239;28;20073;-72
2023/12/11 05:58:56;;;;;;;12.20;3.35;;;;;;;;;;5007125;28;20071;-72
2023/12/11 06:01:25;;;;;;;12.80;3.92;;;;;;;;;;5003335;28;20054;-73
2023/12/11 06:03:51;;;;;;;12.02;3.20;;;;;;;;;;5006140;28;20041;-72
2023/12/11 06:06:18;;;;;;;18.33;3.15;;;;;;;;;;5006693;28;20050;-72
2023/12/11 06:08:45;;;;;;;13.07;2.80;;;;;;;;;;5007658;28;20046;-74
2023/12/11 06:11:11;;;;;;;11.43;3.05;;;;;;;;;;5006772;28;20053;-71
2023/12/11 06:13:38;;;;;;;16.38;4.07;;;;;;;;;;5007001;28;20399;-71
2023/12/11 06:16:04;;;;;;;13.98;2.50;;;;;;;;;;5006811;28;20046;-70
2023/12/11 06:18:31;;;;;;;33.33;4.90;;;;;;;;;;5006801;28;20522;-75
2023/12/11 06:20:58;;;;;;;13.65;3.33;;;;;;;;;;5007290;28;20126;-72
2023/12/11 06:23:29;;;;;;;11.10;3.42;;;;;;;;;;5006977;28;20057;-73
2023/12/11 06:25:56;;;;;;;11.05;3.42;;;;;;;;;;5007409;28;20571;-73
2023/12/11 06:28:22;;;;;;;10.75;2.65;;;;;;;;;;5006835;28;20050;-73
2023/12/11 06:30:49;;;;;;;12.52;3.03;;;;;;;;;;5006279;28;20046;-73
2023/12/11 06:33:16;;;;;;;14.93;3.47;;;;;;;;;;5006919;28;20050;-73
2023/12/11 06:35:42;;;;;;;17.50;4.20;;;;;;;;;;5006330;28;20050;-73
2023/12/11 06:38:08;;;;;;;10.48;3.10;;;;;;;;;;5006979;28;20181;-72
2023/12/11 06:40:35;;;;;;;16.65;5.03;;;;;;;;;;5006892;28;20553;-74
2023/12/11 06:43:02;;;;;;;10.75;4.32;;;;;;;;;;5007137;28;20069;-73
2023/12/11 06:45:29;;;;;;;11.82;4.38;;;;;;;;;;5006342;28;20054;-72
2023/12/11 06:48:00;;;;;;;13.30;3.42;;;;;;;;;;5007065;28;20088;-72
2023/12/11 06:50:27;;;;;;;10.65;2.58;;;;;;;;;;5005203;28;20045;-73
2023/12/11 06:52:53;;;;;;;13.32;2.35;;;;;;;;;;5007271;28;20050;-74
2023/12/11 06:55:20;;;;;;;11.10;2.55;;;;;;;;;;5006465;28;20057;-72
2023/12/11 06:57:46;;;;;;;14.52;3.38;;;;;;;;;;5007254;28;20108;-72
2023/12/11 07:00:14;;;;;;;7.10;2.50;;;;;;;;;;5006245;28;20050;-74
2023/12/11 07:02:40;;;;;;;6.40;2.97;;;;;;;;;;5005675;28;20529;-71
2023/12/11 07:05:07;;;;;;;12.00;2.67;;;;;;;;;;5004882;28;20068;-72
2023/12/11 07:07:34;;;;;;;9.48;3.03;;;;;;;;;;5000972;28;20046;-72
2023/12/11 07:10:04;;;;;;;6.93;2.67;;;;;;;;;;5006620;28;20057;-71
2023/12/11 07:12:31;;;;;;;12.93;2.95;;;;;;;;;;5006677;28;20058;-71
2023/12/11 07:14:57;;;;;;;13.50;2.70;;;;;;;;;;5006754;28;20042;-71
2023/12/11 07:17:24;;;;;;;9.82;2.05;;;;;;;;;;5005841;28;20120;-72
2023/12/11 07:19:50;;;;;;;10.23;2.42;;;;;;;;;;5005632;28;20054;-71
2023/12/11 07:22:17;;;;;;;15.02;2.47;;;;;;;;;;5006590;28;20108;-72
2023/12/11 07:24:43;;;;;;;11.55;3.13;;;;;;;;;;5006015;28;20038;-71
2023/12/11 07:27:11;;;;;;;10.75;2.10;;;;;;;;;;5010046;28;20046;-72
2023/12/11 07:29:37;;;;;;;7.40;2.25;;;;;;;;;;5009807;28;20145;-73
2023/12/11 07:32:04;;;;;;;10.25;2.15;;;;;;;;;;5009813;28;20037;-73
2023/12/11 07:34:30;;;;;;;8.63;2.03;;;;;;;;;;5009473;28;20054;-72
2023/12/11 07:36:57;;;;;;;8.82;2.50;;;;;;;;;;5010299;28;20046;-70
2023/12/11 07:39:24;;;;;;;10.88;2.20;;;;;;;;;;5009675;28;20111;-71
2023/12/11 07:41:51;;;;;;;13.77;3.13;;;;;;;;;;5010308;28;20046;-71
2023/12/11 07:44:17;;;;;;;12.23;2.10;;;;;;;;;;5009554;28;20069;-73
2023/12/11 07:46:44;;;;;;;12.80;2.72;;;;;;;;;;5010188;28;20069;-70
2023/12/11 07:49:13;;;;;;;11.13;2.40;;;;;;;;;;5009356;28;20530;-74
2023/12/11 07:51:40;;;;;;;11.25;3.67;;;;;;;;;;5008864;28;20065;-72
2023/12/11 07:54:07;;;;;;;6.25;1.88;;;;;;;;;;5009699;28;20104;-73
2023/12/11 07:56:35;;;;;;;22.30;3.17;;;;;;;;;;5009523;28;20046;-72
2023/12/11 07:59:02;;;;;;;10.52;1.92;;;;;;;;;;5009107;28;20129;-75
2023/12/11 08:01:30;;;;;;;10.27;1.80;;;;;;;;;;5009760;28;20137;-73
2023/12/11 08:03:57;;;;;;;16.00;3.28;;;;;;;;;;5009248;28;20054;-74
2023/12/11 08:06:24;;;;;;;14.85;2.35;;;;;;;;;;5008451;28;20049;-72
2023/12/11 08:08:51;;;;;;;18.55;2.72;;;;;;;;;;5010146;28;20050;-71
2023/12/11 08:11:21;;;;;;;13.98;2.58;;;;;;;;;;5010229;28;20104;-75
2023/12/11 08:13:48;;;;;;;11.48;3.38;;;;;;;;;;5010194;28;20133;-76
2023/12/11 08:16:15;;;;;;;12.25;2.40;;;;;;;;;;5012171;28;20072;-73
2023/12/11 08:18:43;;;;;;;11.68;3.33;;;;;;;;;;5008649;28;20502;-71
2023/12/11 08:21:10;;;;;;;18.42;2.47;;;;;;;;;;5007661;28;20053;-72
2023/12/11 08:23:40;;;;;;;11.70;2.63;;;;;;;;;;5009001;28;20061;-71
2023/12/11 08:26:07;;;;;;;10.18;2.55;;;;;;;;;;5008960;28;20052;-71
2023/12/11 08:28:33;;;;;;;12.52;2.13;;;;;;;;;;5009627;28;20653;-71
2023/12/11 08:31:00;;;;;;;9.65;2.13;;;;;;;;;;5009593;28;20054;-73
2023/12/11 08:33:26;;;;;;;14.60;2.15;;;;;;;;;;5008902;28;20058;-70
2023/12/11 08:35:53;;;;;;;15.98;2.72;;;;;;;;;;5008175;28;20038;-71
2023/12/11 08:38:22;;;;;;;12.90;2.38;;;;;;;;;;5007817;28;20155;-73
2023/12/11 08:40:49;;;;;;;14.82;3.70;;;;;;;;;;5008683;28;20038;-73
2023/12/11 08:43:16;;;;;;;15.18;2.58;;;;;;;;;;5009266;28;20073;-71
2023/12/11 08:45:43;;;;;;;17.30;2.72;;;;;;;;;;5008390;28;20104;-71
2023/12/11 08:48:09;;;;;;;10.38;2.60;;;;;;;;;;5008443;28;20483;-72
2023/12/11 08:50:36;;;;;;;15.35;3.28;;;;;;;;;;5007563;28;20124;-72
2023/12/11 08:53:05;;;;;;;14.23;3.38;;;;;;;;;;5008928;28;20054;-72
2023/12/11 08:55:32;;;;;;;11.73;2.38;;;;;;;;;;5008410;28;20065;-71
2023/12/11 08:57:59;;;;;;;13.98;2.50;;;;;;;;;;5010968;28;20072;-72
2023/12/11 09:00:25;;;;;;;8.77;2.42;;;;;;;;;;5010196;28;20042;-70
2023/12/11 09:02:52;;;;;;;19.67;3.65;;;;;;;;;;5011383;28;20045;-71
2023/12/11 09:05:18;;;;;;;19.63;2.83;;;;;;;;;;5008249;28;20065;-72
2023/12/11 09:07:45;;;;;;;13.70;2.38;;;;;;;;;;5009181;28;20223;-72
2023/12/11 09:10:12;;;;;;;13.15;2.33;;;;;;;;;;5023430;28;20050;-71
2023/12/11 09:12:38;;;;;;;11.65;2.30;;;;;;;;;;5008152;28;20046;-71
2023/12/11 09:15:05;;;;;;;12.55;2.30;;;;;;;;;;5008380;28;20048;-72
2023/12/11 09:17:32;;;;;;;9.73;2.28;;;;;;;;;;5008616;28;20049;-72
2023/12/11 09:19:59;;;;;;;15.45;3.10;;;;;;;;;;5007890;28;20068;-73
2023/12/11 09:22:26;;;;;;;11.75;2.25;;;;;;;;;;5002494;28;20054;-71
2023/12/11 09:24:52;;;;;;;13.15;2.47;;;;;;;;;;5001821;28;20681;-70
2023/12/11 09:27:19;;;;;;;13.43;2.22;;;;;;;;;;5008940;28;20046;-72
2023/12/11 09:29:48;;;;;;;18.67;2.65;;;;;;;;;;5008011;28;20576;-70
2023/12/11 09:32:16;;;;;;;8.85;2.80;;;;;;;;;;5007655;28;20049;-70
2023/12/11 09:34:43;;;;;;;15.27;2.42;;;;;;;;;;5007749;28;20050;-69
2023/12/11 09:37:09;;;;;;;13.45;2.78;;;;;;;;;;5007581;28;20129;-70
2023/12/11 09:39:36;;;;;;;16.02;3.85;;;;;;;;;;5007191;28;20411;-69
2023/12/11 09:42:03;;;;;;;15.52;2.60;;;;;;;;;;5007683;28;20042;-70
2023/12/11 09:44:30;;;;;;;19.55;3.85;;;;;;;;;;5007378;28;20042;-70
2023/12/11 09:47:07;;;;;;;14.43;2.92;;;;;;;;;;5008381;28;20050;-69
2023/12/11 09:49:34;;;;;;;12.60;2.05;;;;;;;;;;5007577;28;20049;-69
2023/12/11 09:52:01;;;;;;;14.43;2.25;;;;;;;;;;5006241;28;20496;-70
2023/12/11 09:54:28;;;;;;;15.10;2.58;;;;;;;;;;5007515;28;20049;-71
2023/12/11 09:56:55;;;;;;;17.17;2.88;;;;;;;;;;5007072;28;20050;-70
2023/12/11 09:59:21;;;;;;;8.85;1.92;;;;;;;;;;5007729;28;20104;-70
2023/12/11 10:01:48;;;;;;;10.63;2.22;;;;;;;;;;5006932;28;20050;-71
2023/12/11 10:04:15;;;;;;;17.83;2.42;;;;;;;;;;5007683;28;20042;-70
2023/12/11 10:06:42;;;;;;;12.82;3.60;;;;;;;;;;5005993;28;20085;-70
2023/12/11 10:09:25;;;;;;;13.35;2.67;;;;;;;;;;5007433;28;20081;-72
2023/12/11 10:12:02;;;;;;;15.90;2.30;;;;;;;;;;5006508;28;20054;-71
2023/12/11 10:14:30;;;;;;;14.60;2.70;;;;;;;;;;5006903;28;20149;-74
2023/12/11 10:16:57;;;;;;;18.73;3.25;;;;;;;;;;5007402;28;20056;-70
2023/12/11 10:19:31;;;;;;;16.45;2.95;;;;;;;;;;5006693;28;20057;-71
2023/12/11 10:21:58;;;;;;;10.32;2.05;;;;;;;;;;5006109;28;20079;-73
2023/12/11 10:24:25;;;;;;;28.73;3.10;;;;;;;;;;5008392;28;20049;-73
2023/12/11 10:26:55;;;;;;;14.43;3.05;;;;;;;;;;5008164;28;20053;-70
2023/12/11 10:29:23;;;;;;;11.80;2.90;;;;;;;;;;5007145;28;20046;-71
2023/12/11 10:31:50;;;;;;;14.00;2.90;;;;;;;;;;5006548;28;20057;-69
2023/12/11 10:34:16;;;;;;;15.68;3.08;;;;;;;;;;5006638;28;20046;-71
2023/12/11 10:36:52;;;;;;;15.40;3.65;;;;;;;;;;5006433;28;20058;-73
2023/12/11 10:39:21;;;;;;;9.10;2.88;;;;;;;;;;5006642;28;20042;-72
2023/12/11 10:41:51;;;;;;;17.50;2.60;;;;;;;;;;5006812;28;20076;-73
2023/12/11 10:44:24;;;;;;;14.45;3.63;;;;;;;;;;5006950;28;20712;-72
2023/12/11 10:47:11;;;;;;;17.45;3.88;;;;;;;;;;5006190;28;20137;-72
2023/12/11 10:49:39;;;;;;;17.10;3.15;;;;;;;;;;5007285;28;20664;-72
2023/12/11 10:52:07;;;;;;;17.15;3.78;;;;;;;;;;5003674;28;20139;-71
2023/12/11 10:54:35;;;;;;;23.83;4.93;;;;;;;;;;5006089;28;20049;-72
2023/12/11 10:57:02;;;;;;;18.35;2.80;;;;;;;;;;5006692;28;20046;-70
2023/12/11 10:59:31;;;;;;;15.98;2.70;;;;;;;;;;5008165;28;20510;-72
2023/12/11 11:01:58;;;;;;;11.05;3.22;;;;;;;;;;5010182;28;20057;-73
2023/12/11 11:04:26;;;;;;;22.42;2.92;;;;;;;;;;5010550;28;20082;-72
2023/12/11 11:06:55;;;;;;;15.27;4.03;;;;;;;;;;5008181;28;20042;-72
2023/12/11 11:09:45;;;;;;;12.43;2.50;;;;;;;;;;5009638;28;20042;-69
2023/12/11 11:12:23;;;;;;;18.15;2.65;;;;;;;;;;5006341;28;20058;-70
2023/12/11 11:14:50;;;;;;;9.73;2.72;;;;;;;;;;5003004;28;20057;-66
2023/12/11 11:17:16;;;;;;;13.38;3.80;;;;;;;;;;5009828;28;20050;-67
2023/12/11 11:20:02;;;;;;;15.20;3.55;;;;;;;;;;5009290;28;20057;-69
2023/12/11 11:22:28;;;;;;;8.75;2.00;;;;;;;;;;5009481;28;21077;-66
2023/12/11 11:25:29;;;;;;;11.43;2.75;;;;;;;;;;5008384;28;20077;-67
2023/12/11 11:27:56;;;;;;;12.93;3.08;;;;;;;;;;5004459;28;20763;-67
2023/12/11 11:30:41;;;;;;;9.82;2.05;;;;;;;;;;5009684;28;20494;-64
2023/12/11 11:33:08;;;;;;;21.38;5.88;;;;;;;;;;5006628;28;20518;-70
2023/12/11 11:35:48;;;;;;;10.45;2.55;;;;;;;;;;5008173;28;20448;-66
2023/12/11 11:38:18;;;;;;;11.70;2.65;;;;;;;;;;5007802;28;20124;-66
2023/12/11 11:40:47;;;;;;;15.68;2.60;;;;;;;;;;5007896;28;20477;-65
2023/12/11 11:43:14;;;;;;;10.05;2.30;;;;;;;;;;5009509;28;20056;-67
2023/12/11 11:45:41;;;;;;;13.00;2.08;;;;;;;;;;5009271;28;20534;-67
2023/12/11 11:48:08;;;;;;;11.80;2.88;;;;;;;;;;5005695;28;20409;-66
2023/12/11 11:50:35;;;;;;;8.85;1.90;;;;;;;;;;5007796;28;20494;-66
2023/12/11 11:53:06;;;;;;;11.15;3.03;;;;;;;;;;5009877;28;20475;-64
2023/12/11 11:55:33;;;;;;;15.73;2.78;;;;;;;;;;5007844;28;20104;-69
2023/12/11 11:58:10;;;;;;;23.40;3.55;;;;;;;;;;5009734;28;20060;-66
2023/12/11 12:00:36;;;;;;;11.77;3.90;;;;;;;;;;5006825;28;20069;-64
2023/12/11 12:03:04;;;;;;;18.92;3.63;;;;;;;;;;5008324;28;20100;-66
2023/12/11 12:05:31;;;;;;;7.63;2.75;;;;;;;;;;5005180;28;20108;-67
2023/12/11 12:07:58;;;;;;;18.52;3.55;;;;;;;;;;5006592;28;20061;-65
2023/12/11 12:10:24;;;;;;;13.32;2.78;;;;;;;;;;5006772;28;20057;-67
2023/12/11 12:12:58;;;;;;;14.38;2.95;;;;;;;;;;5007679;28;20061;-66
2023/12/11 12:15:25;;;;;;;13.82;3.50;;;;;;;;;;5007026;28;20134;-68
2023/12/11 12:17:52;;;;;;;18.60;2.95;;;;;;;;;;5008215;28;20076;-68
2023/12/11 12:20:19;;;;;;;9.30;2.33;;;;;;;;;;5008931;28;20081;-67
2023/12/11 12:22:59;;;;;;;10.77;2.20;;;;;;;;;;5009825;28;20161;-67
2023/12/11 12:25:29;;;;;;;17.85;3.85;;;;;;;;;;5008383;28;20049;-69
2023/12/11 12:27:57;;;;;;;13.20;3.67;;;;;;;;;;5007587;28;20398;-67
2023/12/11 12:30:24;;;;;;;16.17;3.65;;;;;;;;;;5005494;28;20061;-67
2023/12/11 12:32:51;;;;;;;4.47;1.73;;;;;;;;;;5008898;28;20050;-65
2023/12/11 12:35:18;;;;;;;8.27;2.25;;;;;;;;;;4999031;28;20049;-66
2023/12/11 12:37:46;;;;;;;18.30;3.00;;;;;;;;;;5009680;28;20042;-65
2023/12/11 12:40:12;;;;;;;10.35;3.17;;;;;;;;;;5011647;28;20112;-67
2023/12/11 12:42:39;;;;;;;17.38;4.28;;;;;;;;;;5011799;28;20042;-67
2023/12/11 12:45:06;;;;;;;12.57;3.17;;;;;;;;;;5008242;28;20045;-67
2023/12/11 12:47:32;;;;;;;8.57;2.15;;;;;;;;;;5009472;28;20062;-66
2023/12/11 12:50:00;;;;;;;14.23;2.90;;;;;;;;;;5008703;28;20081;-65
2023/12/11 12:52:28;;;;;;;10.93;2.45;;;;;;;;;;5008692;28;20042;-66
2023/12/11 12:54:55;;;;;;;11.80;2.35;;;;;;;;;;5007934;28;20081;-65
2023/12/11 12:57:23;;;;;;;12.35;2.50;;;;;;;;;;5008555;28;20049;-67
2023/12/11 12:59:49;;;;;;;11.98;2.65;;;;;;;;;;5007838;28;20042;-67
2023/12/11 13:02:17;;;;;;;15.55;2.40;;;;;;;;;;5009713;28;20111;-67
2023/12/11 13:04:53;;;;;;;11.82;2.25;;;;;;;;;;5007939;28;20073;-67
2023/12/11 13:07:25;;;;;;;11.23;2.53;;;;;;;;;;5008014;28;20554;-66
2023/12/11 13:09:53;;;;;;;12.63;2.63;;;;;;;;;;5008448;28;20056;-67
2023/12/11 13:12:23;;;;;;;19.52;2.88;;;;;;;;;;5007645;28;20058;-66
2023/12/11 13:14:50;;;;;;;15.88;4.18;;;;;;;;;;5008315;28;20146;-67
2023/12/11 13:17:16;;;;;;;9.75;3.08;;;;;;;;;;5007836;28;20050;-69
2023/12/11 13:19:43;;;;;;;13.77;2.95;;;;;;;;;;5008058;28;20076;-66
2023/12/11 13:22:11;;;;;;;12.70;2.70;;;;;;;;;;5007814;28;20046;-65
2023/12/11 13:24:37;;;;;;;10.52;2.40;;;;;;;;;;5007698;28;20077;-67
2023/12/11 13:27:04;;;;;;;22.02;3.35;;;;;;;;;;5007471;28;20046;-67
2023/12/11 13:29:30;;;;;;;14.00;2.67;;;;;;;;;;5007657;28;20136;-66
2023/12/11 13:31:58;;;;;;;13.48;2.58;;;;;;;;;;5007756;28;20052;-67
2023/12/11 13:34:24;;;;;;;11.07;2.25;;;;;;;;;;5007554;28;20104;-66
2023/12/11 13:36:51;;;;;;;13.95;2.97;;;;;;;;;;5007351;28;20046;-67
2023/12/11 13:39:17;;;;;;;12.23;2.92;;;;;;;;;;5007720;28;20121;-66
2023/12/11 13:41:44;;;;;;;14.55;2.72;;;;;;;;;;5007118;28;20077;-65
2023/12/11 13:44:11;;;;;;;9.30;2.50;;;;;;;;;;5007577;28;20045;-64
2023/12/11 13:46:38;;;;;;;13.77;2.15;;;;;;;;;;5007509;28;20411;-66
2023/12/11 13:49:04;;;;;;;9.48;2.72;;;;;;;;;;5006956;28;20127;-64
2023/12/11 13:51:31;;;;;;;8.85;2.17;;;;;;;;;;5007402;28;20075;-65
2023/12/11 13:53:57;;;;;;;9.23;2.65;;;;;;;;;;5007215;28;20423;-66
2023/12/11 13:56:24;;;;;;;12.65;2.25;;;;;;;;;;5007313;28;20431;-66
2023/12/11 13:58:50;;;;;;;14.43;2.65;;;;;;;;;;5006958;28;20691;-66
2023/12/11 14:01:17;;;;;;;6.35;1.80;;;;;;;;;;5006871;28;20046;-67
2023/12/11 14:03:43;;;;;;;11.73;1.88;;;;;;;;;;5006746;28;20065;-65
2023/12/11 14:06:10;;;;;;;13.75;2.35;;;;;;;;;;5005533;28;20046;-65
2023/12/11 14:08:36;;;;;;;8.52;1.95;;;;;;;;;;5006015;28;20510;-65
2023/12/11 14:11:03;;;;;;;6.80;2.60;;;;;;;;;;5006663;28;20499;-66
2023/12/11 14:13:29;;;;;;;5.00;2.55;;;;;;;;;;5006800;28;20503;-65
2023/12/11 14:15:56;;;;;;;12.02;2.38;;;;;;;;;;5006915;28;20053;-65
2023/12/11 14:18:23;;;;;;;6.93;2.28;;;;;;;;;;5007826;28;20129;-66
2023/12/11 14:20:49;;;;;;;15.55;2.13;;;;;;;;;;5006810;28;20049;-66
2023/12/11 14:23:16;;;;;;;11.93;2.67;;;;;;;;;;5007447;28;20053;-67
2023/12/11 14:25:42;;;;;;;13.32;2.55;;;;;;;;;;5006131;28;20052;-66
2023/12/11 14:28:10;;;;;;;8.50;1.95;;;;;;;;;;5006788;28;20061;-66
2023/12/11 14:30:36;;;;;;;12.98;2.22;;;;;;;;;;5006386;28;20048;-66
2023/12/11 14:33:04;;;;;;;9.25;2.40;;;;;;;;;;5006616;28;20133;-66